Snow/Ice From: 24-10-2018 05:00 Until: 09:00 warning for: Snow/Ice Level: Yellow info button
suomi:
Liikennesää: Ajokeli muuttuu huonoksi aamulla tienpintojen jäätymisen vuoksi.

svenska:
Trafikvädret: Väglaget blir dåligt på morgonen p.g.a. tillfrysning av vägytor.

english:
Traffic weather warning: Bad road conditions are expected in the morning because of ice-covered roads. 


Thunder radar more information blitzortung!


Löydät sääaseman tiedot myös:

European Weather Network

Finland Weather Exchange

Weather Underground

AWEKAS



Weather Underground säähistoriasivu

Päivittäin yhteenveto Helmikuu 2, 2017 Yksiköt:  Molemmat    Englantilaiset   Metriset
« Edellinen Päivä
Seuraava Päivä »
Päivittäin Viikoittain Kuukausittain Vuosittain Mukautettu
  Korkea: Matala: Keskiarvo:
Lämpötila: TemperatureF °F /  -17.8 °C 28.6 °F /  -1.9 °C 29.7 °F /  -1.3 °C
Kastepiste: DewpointF °F /  -17.8 °C 25.2 °F /  -3.8 °C 28.1 °F /  -2.2 °C
Kosteus: Humidity % 86 % 92 %
Tuulen nopeus: WindSpeedMPH mph /  0 km/h - 3.8 mph /  6.1 km/h
Tuulenpuuska: WindSpeedGustMPH mph /  0 km/h - -
Tuuli:- - SSW
Ilmanpaine: PressureIn in /  0 hPa 29.85 in /  1010.7 hPa -
Sade: 0.00 in /  0 mm    
Historical Graphs
 
 
Taulukkotiedot Helmikuu 2, 2017
Aika Lämpötila Kastepiste Ilmanpaine Tuuli Tuulen nopeus Tuulenpuuska Kosteus Sademäärä (tunneittain)
TemperatureF °F /  -17.8 °C DewpointF °F /  -17.8 °C PressureIn in /  0 hPa Calm     Humidity % HourlyPrecipIn in /  0 mm
00:00 29.3 °F /  -1.5 °C 25.9 °F /  -3.4 °C 30.10 in /  1019.2 hPa South 3.0 mph /  4.8 km/h 11.0 mph /  17.7 km/h 87 % 0.00 in /  0 mm
00:15 29.1 °F /  -1.6 °C 26.1 °F /  -3.3 °C 30.09 in /  1018.8 hPa South 4.0 mph /  6.4 km/h 10.0 mph /  16.1 km/h 88 % 0.00 in /  0 mm
00:30 28.9 °F /  -1.7 °C 25.9 °F /  -3.4 °C 30.09 in /  1018.8 hPa South 3.0 mph /  4.8 km/h 8.0 mph /  12.9 km/h 88 % 0.00 in /  0 mm
00:45 29.1 °F /  -1.6 °C 26.1 °F /  -3.3 °C 30.09 in /  1018.8 hPa SSW 3.0 mph /  4.8 km/h 11.0 mph /  17.7 km/h 88 % 0.00 in /  0 mm
01:00 29.1 °F /  -1.6 °C 25.7 °F /  -3.5 °C 30.08 in /  1018.5 hPa SSW 4.0 mph /  6.4 km/h 10.0 mph /  16.1 km/h 87 % 0.00 in /  0 mm
01:15 29.1 °F /  -1.6 °C 25.5 °F /  -3.6 °C 30.08 in /  1018.5 hPa SSW 4.0 mph /  6.4 km/h 9.0 mph /  14.5 km/h 86 % 0.00 in /  0 mm
01:30 29.1 °F /  -1.6 °C 25.5 °F /  -3.6 °C 30.08 in /  1018.5 hPa SSW 4.0 mph /  6.4 km/h 12.0 mph /  19.3 km/h 86 % 0.00 in /  0 mm
01:45 28.9 °F /  -1.7 °C 25.3 °F /  -3.7 °C 30.08 in /  1018.5 hPa SSW 4.0 mph /  6.4 km/h 10.0 mph /  16.1 km/h 86 % 0.00 in /  0 mm
02:00 28.9 °F /  -1.7 °C 25.2 °F /  -3.8 °C 30.07 in /  1018.2 hPa SSW 4.0 mph /  6.4 km/h 10.0 mph /  16.1 km/h 86 % 0.00 in /  0 mm
02:15 28.9 °F /  -1.7 °C 25.5 °F /  -3.6 °C 30.07 in /  1018.2 hPa SSW 5.0 mph /  8 km/h 12.0 mph /  19.3 km/h 87 % 0.00 in /  0 mm
02:30 28.8 °F /  -1.8 °C 25.3 °F /  -3.7 °C 30.06 in /  1017.8 hPa South 3.0 mph /  4.8 km/h 6.0 mph /  9.7 km/h 87 % 0.00 in /  0 mm
02:45 28.8 °F /  -1.8 °C 25.7 °F /  -3.5 °C 30.06 in /  1017.8 hPa South 4.0 mph /  6.4 km/h 11.0 mph /  17.7 km/h 88 % 0.00 in /  0 mm
03:00 28.8 °F /  -1.8 °C 25.5 °F /  -3.6 °C 30.05 in /  1017.5 hPa South 3.0 mph /  4.8 km/h 9.0 mph /  14.5 km/h 88 % 0.00 in /  0 mm
03:15 28.8 °F /  -1.8 °C 25.5 °F /  -3.6 °C 30.05 in /  1017.5 hPa South 1.0 mph /  1.6 km/h 5.0 mph /  8 km/h 88 % 0.00 in /  0 mm
03:30 28.8 °F /  -1.8 °C 25.9 °F /  -3.4 °C 30.04 in /  1017.2 hPa SSE 2.0 mph /  3.2 km/h 6.0 mph /  9.7 km/h 89 % 0.00 in /  0 mm
03:45 28.6 °F /  -1.9 °C 26.1 °F /  -3.3 °C 30.04 in /  1017.2 hPa SSE 2.0 mph /  3.2 km/h 6.0 mph /  9.7 km/h 90 % 0.00 in /  0 mm
04:00 28.6 °F /  -1.9 °C 26.2 °F /  -3.2 °C 30.04 in /  1017.2 hPa South 1.0 mph /  1.6 km/h 7.0 mph /  11.3 km/h 91 % 0.00 in /  0 mm
04:15 28.6 °F /  -1.9 °C 26.4 °F /  -3.1 °C 30.03 in /  1016.8 hPa South 1.0 mph /  1.6 km/h 8.0 mph /  12.9 km/h 92 % 0.00 in /  0 mm
04:30 28.6 °F /  -1.9 °C 26.8 °F /  -2.9 °C 30.03 in /  1016.8 hPa South 2.0 mph /  3.2 km/h 6.0 mph /  9.7 km/h 93 % 0.00 in /  0 mm
04:45 28.6 °F /  -1.9 °C 26.8 °F /  -2.9 °C 30.02 in /  1016.5 hPa South 2.0 mph /  3.2 km/h 7.0 mph /  11.3 km/h 93 % 0.00 in /  0 mm
05:00 28.6 °F /  -1.9 °C 27.0 °F /  -2.8 °C 30.02 in /  1016.5 hPa SSE 2.0 mph /  3.2 km/h 6.0 mph /  9.7 km/h 94 % 0.00 in /  0 mm
05:15 28.6 °F /  -1.9 °C 27.1 °F /  -2.7 °C 30.02 in /  1016.5 hPa South 2.0 mph /  3.2 km/h 11.0 mph /  17.7 km/h 94 % 0.00 in /  0 mm
05:30 28.8 °F /  -1.8 °C 27.1 °F /  -2.7 °C 30.02 in /  1016.5 hPa South 3.0 mph /  4.8 km/h 7.0 mph /  11.3 km/h 94 % 0.00 in /  0 mm
05:45 28.9 °F /  -1.7 °C 27.3 °F /  -2.6 °C 30.01 in /  1016.1 hPa SSW 3.0 mph /  4.8 km/h 9.0 mph /  14.5 km/h 94 % 0.00 in /  0 mm
06:00 28.9 °F /  -1.7 °C 27.5 °F /  -2.5 °C 30.00 in /  1015.8 hPa SSW 3.0 mph /  4.8 km/h 9.0 mph /  14.5 km/h 94 % 0.00 in /  0 mm
06:15 28.9 °F /  -1.7 °C 27.5 °F /  -2.5 °C 30.00 in /  1015.8 hPa South 3.0 mph /  4.8 km/h 10.0 mph /  16.1 km/h 94 % 0.00 in /  0 mm
06:30 29.1 °F /  -1.6 °C 27.5 °F /  -2.5 °C 30.00 in /  1015.8 hPa South 3.0 mph /  4.8 km/h 10.0 mph /  16.1 km/h 94 % 0.00 in /  0 mm
06:45 29.1 °F /  -1.6 °C 27.5 °F /  -2.5 °C 29.99 in /  1015.5 hPa South 1.0 mph /  1.6 km/h 8.0 mph /  12.9 km/h 94 % 0.00 in /  0 mm
07:00 29.1 °F /  -1.6 °C 27.5 °F /  -2.5 °C 29.99 in /  1015.5 hPa SSW 4.0 mph /  6.4 km/h 11.0 mph /  17.7 km/h 94 % 0.00 in /  0 mm
07:15 29.1 °F /  -1.6 °C 27.7 °F /  -2.4 °C 29.98 in /  1015.1 hPa SSW 4.0 mph /  6.4 km/h 8.0 mph /  12.9 km/h 94 % 0.00 in /  0 mm
07:30 29.1 °F /  -1.6 °C 27.7 °F /  -2.4 °C 29.98 in /  1015.1 hPa South 2.0 mph /  3.2 km/h 6.0 mph /  9.7 km/h 94 % 0.00 in /  0 mm
07:45 29.3 °F /  -1.5 °C 27.9 °F /  -2.3 °C 29.98 in /  1015.1 hPa South 4.0 mph /  6.4 km/h 15.0 mph /  24.1 km/h 94 % 0.00 in /  0 mm
08:00 29.3 °F /  -1.5 °C 27.9 °F /  -2.3 °C 29.98 in /  1015.1 hPa SSW 4.0 mph /  6.4 km/h 9.0 mph /  14.5 km/h 94 % 0.00 in /  0 mm
08:15 29.5 °F /  -1.4 °C 27.9 °F /  -2.3 °C 29.97 in /  1014.8 hPa SSW 5.0 mph /  8 km/h 12.0 mph /  19.3 km/h 94 % 0.00 in /  0 mm
08:30 29.5 °F /  -1.4 °C 28.0 °F /  -2.2 °C 29.97 in /  1014.8 hPa SSW 3.0 mph /  4.8 km/h 10.0 mph /  16.1 km/h 94 % 0.00 in /  0 mm
08:45 29.5 °F /  -1.4 °C 28.2 °F /  -2.1 °C 29.97 in /  1014.8 hPa SSW 4.0 mph /  6.4 km/h 11.0 mph /  17.7 km/h 95 % 0.00 in /  0 mm
09:00 29.7 °F /  -1.3 °C 28.4 °F /  -2 °C 29.96 in /  1014.4 hPa South 4.0 mph /  6.4 km/h 9.0 mph /  14.5 km/h 95 % 0.00 in /  0 mm
09:15 29.8 °F /  -1.2 °C 28.6 °F /  -1.9 °C 29.96 in /  1014.4 hPa SSW 4.0 mph /  6.4 km/h 13.0 mph /  20.9 km/h 95 % 0.00 in /  0 mm
09:30 30.0 °F /  -1.1 °C 28.8 °F /  -1.8 °C 29.96 in /  1014.4 hPa SSW 5.0 mph /  8 km/h 10.0 mph /  16.1 km/h 95 % 0.00 in /  0 mm
09:45 30.0 °F /  -1.1 °C 28.8 °F /  -1.8 °C 29.95 in /  1014.1 hPa SSW 6.0 mph /  9.7 km/h 12.0 mph /  19.3 km/h 95 % 0.00 in /  0 mm
10:00 30.2 °F /  -1 °C 28.9 °F /  -1.7 °C 29.95 in /  1014.1 hPa SSW 4.0 mph /  6.4 km/h 10.0 mph /  16.1 km/h 95 % 0.00 in /  0 mm
10:15 30.4 °F /  -0.9 °C 29.1 °F /  -1.6 °C 29.95 in /  1014.1 hPa SSW 5.0 mph /  8 km/h 13.0 mph /  20.9 km/h 95 % 0.00 in /  0 mm
10:30 30.2 °F /  -1 °C 28.9 °F /  -1.7 °C 29.95 in /  1014.1 hPa SSW 6.0 mph /  9.7 km/h 15.0 mph /  24.1 km/h 95 % 0.00 in /  0 mm
10:45 30.2 °F /  -1 °C 28.8 °F /  -1.8 °C 29.94 in /  1013.8 hPa SSW 8.0 mph /  12.9 km/h 22.0 mph /  35.4 km/h 94 % 0.00 in /  0 mm
11:00 30.2 °F /  -1 °C 28.8 °F /  -1.8 °C 29.94 in /  1013.8 hPa SSW 5.0 mph /  8 km/h 11.0 mph /  17.7 km/h 94 % 0.00 in /  0 mm
11:15 30.2 °F /  -1 °C 28.9 °F /  -1.7 °C 29.94 in /  1013.8 hPa SSW 6.0 mph /  9.7 km/h 12.0 mph /  19.3 km/h 95 % 0.00 in /  0 mm
11:30 30.4 °F /  -0.9 °C 29.1 °F /  -1.6 °C 29.94 in /  1013.8 hPa SSW 5.0 mph /  8 km/h 15.0 mph /  24.1 km/h 95 % 0.00 in /  0 mm
11:45 30.4 °F /  -0.9 °C 29.1 °F /  -1.6 °C 29.93 in /  1013.4 hPa SSW 5.0 mph /  8 km/h 15.0 mph /  24.1 km/h 95 % 0.00 in /  0 mm
12:00 30.4 °F /  -0.9 °C 29.1 °F /  -1.6 °C 29.93 in /  1013.4 hPa SSW 5.0 mph /  8 km/h 13.0 mph /  20.9 km/h 95 % 0.00 in /  0 mm
12:15 30.4 °F /  -0.9 °C 29.1 °F /  -1.6 °C 29.93 in /  1013.4 hPa SSW 5.0 mph /  8 km/h 16.0 mph /  25.7 km/h 95 % 0.00 in /  0 mm
12:30 30.4 °F /  -0.9 °C 29.1 °F /  -1.6 °C 29.92 in /  1013.1 hPa SSW 6.0 mph /  9.7 km/h 12.0 mph /  19.3 km/h 95 % 0.00 in /  0 mm
12:45 30.4 °F /  -0.9 °C 29.1 °F /  -1.6 °C 29.92 in /  1013.1 hPa SSW 5.0 mph /  8 km/h 13.0 mph /  20.9 km/h 95 % 0.00 in /  0 mm
13:00 30.4 °F /  -0.9 °C 29.1 °F /  -1.6 °C 29.92 in /  1013.1 hPa SSW 5.0 mph /  8 km/h 13.0 mph /  20.9 km/h 95 % 0.00 in /  0 mm
13:15 30.6 °F /  -0.8 °C 29.3 °F /  -1.5 °C 29.91 in /  1012.8 hPa SSW 6.0 mph /  9.7 km/h 14.0 mph /  22.5 km/h 95 % 0.00 in /  0 mm
13:30 30.6 °F /  -0.8 °C 29.3 °F /  -1.5 °C 29.90 in /  1012.4 hPa SSW 5.0 mph /  8 km/h 12.0 mph /  19.3 km/h 95 % 0.00 in /  0 mm
13:45 30.7 °F /  -0.7 °C 29.5 °F /  -1.4 °C 29.90 in /  1012.4 hPa SSW 4.0 mph /  6.4 km/h 10.0 mph /  16.1 km/h 95 % 0.00 in /  0 mm
14:00 30.7 °F /  -0.7 °C 29.5 °F /  -1.4 °C 29.89 in /  1012.1 hPa SSW 7.0 mph /  11.3 km/h 17.0 mph /  27.4 km/h 95 % 0.00 in /  0 mm
14:15 30.9 °F /  -0.6 °C 29.5 °F /  -1.4 °C 29.89 in /  1012.1 hPa SSW 6.0 mph /  9.7 km/h 13.0 mph /  20.9 km/h 94 % 0.00 in /  0 mm
14:30 31.1 °F /  -0.5 °C 29.7 °F /  -1.3 °C 29.89 in /  1012.1 hPa SSW 6.0 mph /  9.7 km/h 11.0 mph /  17.7 km/h 94 % 0.00 in /  0 mm
14:45 30.9 °F /  -0.6 °C 29.5 °F /  -1.4 °C 29.88 in /  1011.7 hPa SSW 3.0 mph /  4.8 km/h 9.0 mph /  14.5 km/h 94 % 0.00 in /  0 mm
15:00 30.9 °F /  -0.6 °C 29.5 °F /  -1.4 °C 29.88 in /  1011.7 hPa South 5.0 mph /  8 km/h 11.0 mph /  17.7 km/h 94 % 0.00 in /  0 mm
15:15 31.1 °F /  -0.5 °C 29.7 °F /  -1.3 °C 29.88 in /  1011.7 hPa SSW 4.0 mph /  6.4 km/h 11.0 mph /  17.7 km/h 94 % 0.00 in /  0 mm
15:30 30.9 °F /  -0.6 °C 29.7 °F /  -1.3 °C 29.88 in /  1011.7 hPa SSW 4.0 mph /  6.4 km/h 9.0 mph /  14.5 km/h 95 % 0.00 in /  0 mm
15:45 31.3 °F /  -0.4 °C 29.7 °F /  -1.3 °C 29.87 in /  1011.4 hPa SSW 6.0 mph /  9.7 km/h 13.0 mph /  20.9 km/h 94 % 0.00 in /  0 mm
16:00 31.3 °F /  -0.4 °C 29.1 °F /  -1.6 °C 29.87 in /  1011.4 hPa SSW 7.0 mph /  11.3 km/h 19.0 mph /  30.6 km/h 92 % 0.00 in /  0 mm
16:15 30.9 °F /  -0.6 °C 29.1 °F /  -1.6 °C 29.87 in /  1011.4 hPa SSW 6.0 mph /  9.7 km/h 16.0 mph /  25.7 km/h 93 % 0.00 in /  0 mm
16:30 30.9 °F /  -0.6 °C 29.5 °F /  -1.4 °C 29.87 in /  1011.4 hPa SSW 7.0 mph /  11.3 km/h 14.0 mph /  22.5 km/h 94 % 0.00 in /  0 mm
16:45 31.1 °F /  -0.5 °C 29.7 °F /  -1.3 °C 29.87 in /  1011.4 hPa SSW 6.0 mph /  9.7 km/h 13.0 mph /  20.9 km/h 94 % 0.00 in /  0 mm
17:00 31.1 °F /  -0.5 °C 29.7 °F /  -1.3 °C 29.87 in /  1011.4 hPa SSW 6.0 mph /  9.7 km/h 12.0 mph /  19.3 km/h 94 % 0.00 in /  0 mm
17:15 31.3 °F /  -0.4 °C 29.7 °F /  -1.3 °C 29.87 in /  1011.4 hPa SSW 5.0 mph /  8 km/h 13.0 mph /  20.9 km/h 94 % 0.00 in /  0 mm
17:30 31.3 °F /  -0.4 °C 29.7 °F /  -1.3 °C 29.87 in /  1011.4 hPa SSW 6.0 mph /  9.7 km/h 13.0 mph /  20.9 km/h 94 % 0.00 in /  0 mm
17:45 31.3 °F /  -0.4 °C 30.0 °F /  -1.1 °C 29.87 in /  1011.4 hPa SSW 6.0 mph /  9.7 km/h 15.0 mph /  24.1 km/h 95 % 0.00 in /  0 mm
18:00 31.1 °F /  -0.5 °C 29.8 °F /  -1.2 °C 29.87 in /  1011.4 hPa SSW 5.0 mph /  8 km/h 12.0 mph /  19.3 km/h 95 % 0.00 in /  0 mm
18:15 31.1 °F /  -0.5 °C 29.8 °F /  -1.2 °C 29.87 in /  1011.4 hPa SSW 5.0 mph /  8 km/h 12.0 mph /  19.3 km/h 95 % 0.00 in /  0 mm
18:30 30.9 °F /  -0.6 °C 29.7 °F /  -1.3 °C 29.87 in /  1011.4 hPa SSW 3.0 mph /  4.8 km/h 8.0 mph /  12.9 km/h 95 % 0.00 in /  0 mm
18:45 30.9 °F /  -0.6 °C 29.7 °F /  -1.3 °C 29.87 in /  1011.4 hPa SSW 3.0 mph /  4.8 km/h 8.0 mph /  12.9 km/h 95 % 0.00 in /  0 mm
19:00 30.7 °F /  -0.7 °C 29.5 °F /  -1.4 °C 29.87 in /  1011.4 hPa SSW 1.0 mph /  1.6 km/h 7.0 mph /  11.3 km/h 95 % 0.00 in /  0 mm
19:15 30.7 °F /  -0.7 °C 29.5 °F /  -1.4 °C 29.86 in /  1011.1 hPa SSW 3.0 mph /  4.8 km/h 8.0 mph /  12.9 km/h 95 % 0.00 in /  0 mm
19:30 30.7 °F /  -0.7 °C 29.5 °F /  -1.4 °C 29.87 in /  1011.4 hPa SSW 3.0 mph /  4.8 km/h 9.0 mph /  14.5 km/h 95 % 0.00 in /  0 mm
19:45 30.7 °F /  -0.7 °C 29.5 °F /  -1.4 °C 29.87 in /  1011.4 hPa SSW 3.0 mph /  4.8 km/h 8.0 mph /  12.9 km/h 95 % 0.00 in /  0 mm
20:00 30.7 °F /  -0.7 °C 29.5 °F /  -1.4 °C 29.87 in /  1011.4 hPa South 2.0 mph /  3.2 km/h 7.0 mph /  11.3 km/h 95 % 0.00 in /  0 mm
20:15 30.7 °F /  -0.7 °C 29.5 °F /  -1.4 °C 29.87 in /  1011.4 hPa SSW 3.0 mph /  4.8 km/h 10.0 mph /  16.1 km/h 95 % 0.00 in /  0 mm
20:30 30.7 °F /  -0.7 °C 29.3 °F /  -1.5 °C 29.86 in /  1011.1 hPa SSW 3.0 mph /  4.8 km/h 6.0 mph /  9.7 km/h 94 % 0.00 in /  0 mm
20:45 30.7 °F /  -0.7 °C 29.1 °F /  -1.6 °C 29.86 in /  1011.1 hPa SSW 2.0 mph /  3.2 km/h 5.0 mph /  8 km/h 94 % 0.00 in /  0 mm
21:00 30.6 °F /  -0.8 °C 29.3 °F /  -1.5 °C 29.86 in /  1011.1 hPa SSW 1.0 mph /  1.6 km/h 5.0 mph /  8 km/h 95 % 0.00 in /  0 mm
21:15 30.6 °F /  -0.8 °C 29.3 °F /  -1.5 °C 29.86 in /  1011.1 hPa SW 1.0 mph /  1.6 km/h 5.0 mph /  8 km/h 95 % 0.00 in /  0 mm
21:30 30.6 °F /  -0.8 °C 29.3 °F /  -1.5 °C 29.86 in /  1011.1 hPa SW 1.0 mph /  1.6 km/h 3.0 mph /  4.8 km/h 95 % 0.00 in /  0 mm
21:45 30.6 °F /  -0.8 °C 29.5 °F /  -1.4 °C 29.86 in /  1011.1 hPa SSW 2.0 mph /  3.2 km/h 11.0 mph /  17.7 km/h 96 % 0.00 in /  0 mm
22:00 30.7 °F /  -0.7 °C 29.7 °F /  -1.3 °C 29.85 in /  1010.7 hPa SSW 4.0 mph /  6.4 km/h 9.0 mph /  14.5 km/h 96 % 0.00 in /  0 mm
22:15 30.7 °F /  -0.7 °C 29.8 °F /  -1.2 °C 29.85 in /  1010.7 hPa SSW 3.0 mph /  4.8 km/h 8.0 mph /  12.9 km/h 96 % 0.00 in /  0 mm
22:30 30.9 °F /  -0.6 °C 30.0 °F /  -1.1 °C 29.85 in /  1010.7 hPa SSW 4.0 mph /  6.4 km/h 11.0 mph /  17.7 km/h 96 % 0.00 in /  0 mm
22:45 30.9 °F /  -0.6 °C 30.0 °F /  -1.1 °C 29.85 in /  1010.7 hPa SSW 4.0 mph /  6.4 km/h 11.0 mph /  17.7 km/h 96 % 0.00 in /  0 mm
23:00 30.9 °F /  -0.6 °C 30.0 °F /  -1.1 °C 29.85 in /  1010.7 hPa SSW 5.0 mph /  8 km/h 10.0 mph /  16.1 km/h 96 % 0.00 in /  0 mm
23:15 30.9 °F /  -0.6 °C 30.0 °F /  -1.1 °C 29.85 in /  1010.7 hPa SW 2.0 mph /  3.2 km/h 7.0 mph /  11.3 km/h 96 % 0.00 in /  0 mm
23:30 30.9 °F /  -0.6 °C 30.0 °F /  -1.1 °C 29.85 in /  1010.7 hPa SSW 3.0 mph /  4.8 km/h 11.0 mph /  17.7 km/h 96 % 0.00 in /  0 mm
23:45 31.1 °F /  -0.5 °C 30.0 °F /  -1.1 °C 29.85 in /  1010.7 hPa SW 4.0 mph /  6.4 km/h 9.0 mph /  14.5 km/h 96 % 0.00 in /  0 mm
Esan sääasema
Terveisin Weather Underground - 2.75 mb

Alkuperäinen skripti  Jim McMurry - jmcmurry@mwt.net Sovitettu myös templatelle  Wim van der Kuil - Leuven-Template.eu

Laitteet joita käytämme:

Sääasema
Davis VP2

Sääasemaohjelma
Cumulus

Sääaseman tietokone
Asus EeePC

Palveluntarjoaja
Suncomet

Davis VP2

Cumulus

Asus EeePC

Suncomet